Current Weather

Chicago Midway Intl

Chicago, Illinois (KMDW)

Report from: Sunday, September 25, 2022 9:53 PM CDT
Current time: Sunday, September 25, 2022 10:13 PM CDT

Nearby weather
Weather history
Weather forecast

Temperature15.0°C (59.0°F)
Dew point10.0°C (50.0°F)
Winds 8 kts (4.1 m/s, 9.2 mph) Northwest (310°)
Visibility10 mi. (16.1 km)
Clouds Scattered clouds 6,000 ft. (1,829 m)
Ceiling: Broken clouds 7,500 ft. (2,286 m)
Overcast 9,000 ft. (2,743 m)
Altimeter29.83 in.Hg (1010 mB)
Precipitiation0.07 in. (2 mm)
Precip. events Rain ended 9:50 PM
Precip last 3 hours0.08 in. (2 mm)
Relative humidity72 %
Density altitude279 ft. (85 m)
Sea-level pressure101.0 kPa (1010 mB, 29.82 in.Hg)
Remarks Automated weather observing station with precipitation discriminator
Pressure rising more quickly
Flight conditions Visual Meteorological Conditions
Raw dataKMDW 260253Z 31008KT 10SM SCT060 BKN075 OVC090 15/10 A2983 RMK AO2 RAE50 SLP097 P0007 60008 T01500100 53017
An error has occurred. This application may no longer respond until reloaded. Reload 🗙